createdAt,value
2017-10-24T00:00:58.421Z,24.47
2017-10-24T00:03:25.344Z,23.00
2017-10-24T00:05:51.553Z,24.83
2017-10-24T00:08:17.736Z,26.10
2017-10-24T00:10:44.688Z,22.73
2017-10-24T00:13:10.870Z,22.70
2017-10-24T00:15:37.102Z,30.40
2017-10-24T00:18:03.306Z,19.67
2017-10-24T00:20:30.237Z,19.60
2017-10-24T00:22:56.445Z,30.73
2017-10-24T00:25:22.627Z,20.20
2017-10-24T00:27:48.837Z,22.00
2017-10-24T00:30:15.025Z,27.93
2017-10-24T00:32:41.264Z,23.20
2017-10-24T00:35:07.493Z,20.60
2017-10-24T00:37:33.729Z,18.53
2017-10-24T00:39:59.937Z,17.63
2017-10-24T00:42:26.193Z,21.73
2017-10-24T00:44:52.384Z,27.80
2017-10-24T00:47:19.331Z,21.27
2017-10-24T00:49:46.290Z,21.53
2017-10-24T00:52:12.502Z,25.50
2017-10-24T00:54:39.458Z,24.20
2017-10-24T00:57:05.653Z,37.07
2017-10-24T00:59:31.869Z,26.93
2017-10-24T01:01:58.082Z,29.60
2017-10-24T01:04:24.314Z,21.27
2017-10-24T01:06:50.527Z,37.63
2017-10-24T01:09:16.761Z,25.30
2017-10-24T01:11:42.970Z,28.97
2017-10-24T01:14:09.197Z,42.80
2017-10-24T01:16:35.393Z,28.97
2017-10-24T01:19:02.354Z,29.47
2017-10-24T01:21:28.566Z,30.50
2017-10-24T01:23:55.542Z,32.47
2017-10-24T01:26:21.908Z,31.03
2017-10-24T01:28:48.133Z,29.00
2017-10-24T01:31:14.329Z,29.57
2017-10-24T01:33:40.549Z,29.57
2017-10-24T01:36:06.770Z,31.50
2017-10-24T01:38:33.012Z,25.93
2017-10-24T01:40:59.237Z,22.67
2017-10-24T01:43:25.457Z,24.67
2017-10-24T01:45:51.697Z,24.17
2017-10-24T01:48:17.897Z,31.17
2017-10-24T01:50:44.881Z,28.33
2017-10-24T01:53:11.081Z,24.50
2017-10-24T01:55:37.312Z,29.20
2017-10-24T01:58:03.504Z,32.27
2017-10-24T02:00:29.736Z,21.23
2017-10-24T02:02:55.945Z,27.53
2017-10-24T02:05:22.177Z,18.87
2017-10-24T02:07:48.382Z,21.00
2017-10-24T02:10:14.611Z,20.23
2017-10-24T02:12:40.841Z,26.30
2017-10-24T02:15:07.077Z,27.90
2017-10-24T02:17:33.317Z,20.10
2017-10-24T02:19:59.542Z,21.37
2017-10-24T02:22:25.761Z,21.83
2017-10-24T02:24:52.101Z,23.10
2017-10-24T02:27:18.309Z,22.60
2017-10-24T02:29:44.537Z,16.63
2017-10-24T02:32:10.783Z,29.03
2017-10-24T02:34:37.134Z,27.37
2017-10-24T02:37:03.333Z,25.27
2017-10-24T02:39:29.758Z,16.63
2017-10-24T02:41:55.953Z,13.50
2017-10-24T02:44:22.161Z,18.63
2017-10-24T02:46:49.107Z,15.63
2017-10-24T02:49:16.085Z,18.67
2017-10-24T02:51:42.277Z,29.13
2017-10-24T02:54:08.627Z,15.40
2017-10-24T02:56:35.574Z,12.93
2017-10-24T02:59:01.758Z,18.13
2017-10-24T03:01:27.970Z,15.03
2017-10-24T03:03:54.151Z,12.80
2017-10-24T03:06:21.104Z,18.30
2017-10-24T03:08:47.285Z,30.13
2017-10-24T03:11:13.517Z,19.30
2017-10-24T03:13:39.737Z,19.13
2017-10-24T03:16:05.969Z,16.87
2017-10-24T03:18:32.176Z,11.70
2017-10-24T03:20:58.562Z,30.80
2017-10-24T03:23:25.633Z,14.17
2017-10-24T03:25:51.848Z,14.10
2017-10-24T03:28:18.045Z,14.20
2017-10-24T03:30:44.266Z,17.50
2017-10-24T03:33:10.456Z,16.13
2017-10-24T03:35:36.831Z,22.77
2017-10-24T03:38:03.030Z,13.20
2017-10-24T03:40:29.324Z,16.70
2017-10-24T03:42:55.502Z,10.80
2017-10-24T03:45:21.729Z,21.00
2017-10-24T03:47:47.922Z,17.70
2017-10-24T03:50:14.141Z,21.03
2017-10-24T03:52:40.317Z,15.13
2017-10-24T03:55:06.637Z,18.00
2017-10-24T03:57:32.821Z,15.17
2017-10-24T03:59:59.034Z,14.33
2017-10-24T04:02:25.956Z,20.00
2017-10-24T04:04:52.182Z,12.90
2017-10-24T04:07:18.397Z,13.17
2017-10-24T04:12:18.298Z,16.00
2017-10-24T04:14:44.478Z,10.77
2017-10-24T04:17:10.720Z,11.73
2017-10-24T04:19:37.657Z,20.80
2017-10-24T04:22:03.889Z,12.10
2017-10-24T04:24:30.893Z,16.03
2017-10-24T04:26:57.136Z,13.50
2017-10-24T04:29:23.339Z,9.53
2017-10-24T04:31:49.768Z,15.40
2017-10-24T04:34:15.978Z,21.23
2017-10-24T04:36:42.208Z,12.40
2017-10-24T04:39:08.418Z,12.73
2017-10-24T04:41:34.629Z,15.50
2017-10-24T04:44:01.036Z,13.97
2017-10-24T04:46:27.217Z,18.60
2017-10-24T04:48:53.420Z,15.27
2017-10-24T04:51:20.336Z,24.03
2017-10-24T04:53:46.568Z,14.77
2017-10-24T04:56:12.772Z,13.70
2017-10-24T04:58:39.034Z,11.70
2017-10-24T05:01:05.225Z,12.37
2017-10-24T05:03:31.545Z,14.17
2017-10-24T05:05:57.934Z,20.63
2017-10-24T05:08:24.122Z,13.47
2017-10-24T05:10:50.330Z,15.40
2017-10-24T05:13:16.517Z,14.33
2017-10-24T05:15:42.829Z,18.53
2017-10-24T05:18:09.013Z,18.20
2017-10-24T05:20:35.213Z,19.50
2017-10-24T05:23:02.173Z,19.97
2017-10-24T05:25:30.856Z,14.73
2017-10-24T05:27:57.792Z,16.83
2017-10-24T05:30:24.740Z,17.97
2017-10-24T05:32:51.666Z,13.37
2017-10-24T05:35:18.706Z,18.10
2017-10-24T05:37:44.917Z,22.63
2017-10-24T05:40:12.435Z,20.13
2017-10-24T05:42:38.637Z,19.97
2017-10-24T05:45:05.589Z,21.60
2017-10-24T05:47:32.509Z,16.73
2017-10-24T05:49:58.713Z,17.80
2017-10-24T05:52:24.901Z,16.70
2017-10-24T05:54:51.148Z,27.20
2017-10-24T05:57:17.345Z,27.10
2017-10-24T05:59:44.293Z,21.50
2017-10-24T06:02:11.229Z,22.23
2017-10-24T06:04:38.177Z,30.30
2017-10-24T06:07:05.097Z,33.70
2017-10-24T06:09:31.592Z,30.50
2017-10-24T06:11:57.800Z,26.70
2017-10-24T06:14:24.394Z,28.83
2017-10-24T06:16:50.613Z,27.20
2017-10-24T06:19:16.838Z,27.93
2017-10-24T06:21:43.016Z,38.53
2017-10-24T06:24:09.402Z,45.73
2017-10-24T06:26:35.585Z,34.60
2017-10-24T06:29:01.789Z,51.73
2017-10-24T06:31:29.053Z,54.43
2017-10-24T06:33:55.263Z,75.97
2017-10-24T06:36:22.217Z,73.57
2017-10-24T06:38:49.222Z,56.27
2017-10-24T06:41:15.471Z,64.73
2017-10-24T06:43:41.679Z,68.37
2017-10-24T06:48:40.970Z,68.33
2017-10-24T06:51:07.185Z,62.80
2017-10-24T06:53:33.373Z,69.97
2017-10-24T06:55:59.577Z,83.97
2017-10-24T06:58:25.759Z,78.07
2017-10-24T07:00:51.981Z,77.07
2017-10-24T07:03:18.937Z,66.90
2017-10-24T07:05:52.166Z,58.90
2017-10-24T07:08:18.345Z,84.00
2017-10-24T07:10:45.438Z,80.17
2017-10-24T07:13:11.646Z,88.10
2017-10-24T07:15:37.835Z,84.50
2017-10-24T07:18:04.070Z,74.50
2017-10-24T07:20:31.012Z,88.37
2017-10-24T07:22:57.951Z,67.93
2017-10-24T07:25:24.869Z,83.37
2017-10-24T07:27:51.084Z,81.73
2017-10-24T07:30:17.286Z,72.23
2017-10-24T07:32:43.465Z,81.60
2017-10-24T07:35:09.669Z,81.83
2017-10-24T07:37:35.858Z,79.00
2017-10-24T07:40:02.095Z,76.10
2017-10-24T07:42:28.280Z,72.40
2017-10-24T07:44:54.484Z,81.57
2017-10-24T07:47:20.710Z,79.23
2017-10-24T07:49:46.918Z,70.77
2017-10-24T07:52:13.096Z,73.80
2017-10-24T07:54:40.038Z,76.33
2017-10-24T07:57:06.225Z,77.37
2017-10-24T07:59:32.546Z,74.83
2017-10-24T08:01:58.726Z,82.87
2017-10-24T08:04:24.922Z,77.17
2017-10-24T08:06:51.134Z,61.90
2017-10-24T08:09:17.329Z,71.83
2017-10-24T08:11:44.276Z,60.53
2017-10-24T08:14:11.206Z,67.07
2017-10-24T08:16:38.156Z,65.50
2017-10-24T08:19:05.085Z,55.30
2017-10-24T08:21:31.313Z,57.40
2017-10-24T08:23:57.497Z,59.60
2017-10-24T08:26:23.710Z,58.90
2017-10-24T08:28:49.896Z,63.73
2017-10-24T08:31:16.097Z,53.20
2017-10-24T08:33:42.297Z,64.80
2017-10-24T08:36:09.577Z,59.90
2017-10-24T08:38:35.773Z,57.27
2017-10-24T08:41:02.020Z,62.53
2017-10-24T08:43:28.274Z,58.47
2017-10-24T08:45:55.962Z,57.13
2017-10-24T08:48:22.897Z,58.73
2017-10-24T08:50:49.129Z,55.30
2017-10-24T08:53:15.326Z,63.47
2017-10-24T08:55:41.572Z,53.70
2017-10-24T08:58:07.765Z,70.47
2017-10-24T09:00:34.005Z,47.47
2017-10-24T09:03:00.221Z,49.47
2017-10-24T09:05:26.433Z,44.83
2017-10-24T09:07:52.622Z,49.53
2017-10-24T09:14:04.577Z,47.77
2017-10-24T09:16:37.738Z,41.63
2017-10-24T09:19:16.916Z,45.33
2017-10-24T09:21:43.148Z,46.20
2017-10-24T09:24:09.367Z,38.67
2017-10-24T09:26:42.464Z,40.73
2017-10-24T09:29:08.673Z,27.23
2017-10-24T09:31:34.897Z,28.07
2017-10-24T09:34:01.077Z,27.50
2017-10-24T09:36:29.285Z,28.60
2017-10-24T09:38:56.257Z,21.37
2017-10-24T09:41:22.481Z,26.97
2017-10-24T09:43:48.658Z,23.30
2017-10-24T09:46:14.871Z,23.20
2017-10-24T09:48:41.093Z,24.47
2017-10-24T09:51:18.393Z,25.10
2017-10-24T09:53:44.606Z,25.87
2017-10-24T09:59:10.525Z,27.80
2017-10-24T10:01:47.237Z,18.23
2017-10-24T10:04:13.453Z,20.47
2017-10-24T10:07:00.537Z,18.53
2017-10-24T10:09:26.756Z,18.73
2017-10-24T10:11:52.957Z,19.10
2017-10-24T10:14:19.196Z,17.60
2017-10-24T10:16:46.193Z,17.33
2017-10-24T10:19:12.450Z,20.20
2017-10-24T10:21:38.649Z,13.00
2017-10-24T10:24:04.890Z,12.90
2017-10-24T10:26:31.105Z,13.33
2017-10-24T10:28:57.337Z,20.07
2017-10-24T10:31:23.569Z,14.10
2017-10-24T10:33:49.750Z,14.60
2017-10-24T10:36:16.718Z,12.33
2017-10-24T10:38:42.916Z,10.87
2017-10-24T10:41:09.897Z,13.43
2017-10-24T10:43:36.090Z,14.90
2017-10-24T10:46:03.045Z,11.93
2017-10-24T10:48:29.246Z,11.03
2017-10-24T10:50:55.581Z,8.57
2017-10-24T10:53:22.500Z,9.17
2017-10-24T10:55:48.694Z,9.53
2017-10-24T10:58:14.930Z,9.20
2017-10-24T11:00:41.130Z,9.43
2017-10-24T11:03:07.333Z,8.60
2017-10-24T11:05:33.518Z,9.70
2017-10-24T11:07:59.728Z,9.10
2017-10-24T11:10:29.761Z,8.30
2017-10-24T11:12:55.982Z,10.40
2017-10-24T11:15:22.189Z,7.10
2017-10-24T11:17:48.398Z,8.00
2017-10-24T11:20:15.309Z,6.77
2017-10-24T11:22:41.517Z,7.10
2017-10-24T11:25:07.701Z,8.93
2017-10-24T11:27:34.657Z,10.17
2017-10-24T11:30:01.581Z,7.57
2017-10-24T11:32:27.789Z,7.80
2017-10-24T11:34:53.970Z,7.67
2017-10-24T11:37:20.170Z,9.20
2017-10-24T11:39:47.118Z,7.40
2017-10-24T11:42:14.083Z,7.80
2017-10-24T11:44:40.282Z,8.00
2017-10-24T11:47:07.206Z,6.93
2017-10-24T11:49:33.417Z,10.70
2017-10-24T11:51:59.597Z,9.03
2017-10-24T11:54:26.553Z,8.83
2017-10-24T11:56:52.734Z,10.30
2017-10-24T11:59:18.949Z,9.77
2017-10-24T12:01:45.165Z,7.53
2017-10-24T12:04:11.369Z,12.00
2017-10-24T12:06:37.549Z,14.00
2017-10-24T12:09:03.777Z,14.50
2017-10-24T12:11:29.953Z,12.00
2017-10-24T12:13:56.157Z,17.13
2017-10-24T12:16:23.073Z,10.93
2017-10-24T12:18:49.301Z,7.47
2017-10-24T12:21:15.494Z,8.80
2017-10-24T12:23:41.698Z,10.50
2017-10-24T12:26:08.044Z,8.63
2017-10-24T12:28:34.274Z,8.17
2017-10-24T12:31:00.461Z,8.30
2017-10-24T12:33:26.650Z,10.03
2017-10-24T12:35:52.880Z,9.97
2017-10-24T12:38:19.825Z,12.17
2017-10-24T12:40:46.105Z,20.03
2017-10-24T12:43:12.343Z,15.10
2017-10-24T12:45:38.585Z,13.80
2017-10-24T12:48:04.799Z,10.00
2017-10-24T12:50:34.952Z,14.17
2017-10-24T12:53:01.157Z,13.53
2017-10-24T12:55:27.389Z,11.03
2017-10-24T12:58:03.594Z,16.60
2017-10-24T13:00:29.834Z,10.33
2017-10-24T13:02:56.038Z,17.50
2017-10-24T13:05:25.256Z,10.60
2017-10-24T13:07:51.501Z,7.70
2017-10-24T13:10:18.494Z,9.50
2017-10-24T13:12:44.717Z,11.87
2017-10-24T13:15:10.965Z,8.70
2017-10-24T13:17:37.913Z,7.83
2017-10-24T13:20:04.902Z,10.43
2017-10-24T13:22:31.878Z,6.70
2017-10-24T13:24:58.806Z,5.43
2017-10-24T13:27:25.043Z,5.80
2017-10-24T13:29:51.253Z,5.77
2017-10-24T13:32:18.198Z,6.47
2017-10-24T13:34:45.153Z,6.60
2017-10-24T13:37:11.341Z,5.03
2017-10-24T13:39:37.553Z,5.13
2017-10-24T13:42:04.063Z,9.03
2017-10-24T13:44:30.273Z,6.47
2017-10-24T13:46:56.469Z,5.27
2017-10-24T13:49:22.666Z,8.80
2017-10-24T13:51:48.874Z,5.53
2017-10-24T13:54:15.062Z,5.10
2017-10-24T13:56:42.024Z,6.00
2017-10-24T13:59:08.210Z,7.60
2017-10-24T14:01:34.498Z,5.90
2017-10-24T14:04:00.705Z,6.90
2017-10-24T14:06:33.106Z,8.43
2017-10-24T14:09:05.466Z,6.70
2017-10-24T14:11:31.665Z,6.87
2017-10-24T14:13:58.626Z,6.83
2017-10-24T14:16:24.830Z,5.80
2017-10-24T14:18:51.033Z,6.00
2017-10-24T14:21:17.226Z,6.30
2017-10-24T14:23:43.436Z,6.43
2017-10-24T14:26:09.620Z,5.73
2017-10-24T14:28:35.846Z,5.20
2017-10-24T14:31:02.908Z,4.80
2017-10-24T14:33:29.109Z,7.63
2017-10-24T14:35:55.310Z,9.53
2017-10-24T14:38:21.696Z,5.93
2017-10-24T14:40:47.913Z,5.63
2017-10-24T14:43:14.125Z,6.20
2017-10-24T14:45:40.319Z,5.57
2017-10-24T14:48:06.550Z,5.37
2017-10-24T14:50:32.749Z,5.00
2017-10-24T14:52:59.705Z,6.47
2017-10-24T14:55:26.638Z,5.50
2017-10-24T14:57:53.586Z,6.70
2017-10-24T15:00:20.535Z,5.50
2017-10-24T15:02:47.499Z,6.03
2017-10-24T15:05:13.692Z,5.43
2017-10-24T15:07:39.910Z,5.67
2017-10-24T15:10:06.145Z,6.77
2017-10-24T15:12:32.383Z,7.50
2017-10-24T15:14:59.334Z,6.80
2017-10-24T15:17:26.274Z,6.13
2017-10-24T15:19:53.221Z,6.40
2017-10-24T15:22:20.153Z,7.10
2017-10-24T15:24:46.377Z,6.20
2017-10-24T15:27:12.602Z,7.40
2017-10-24T15:29:38.822Z,5.80
2017-10-24T15:32:05.081Z,9.80
2017-10-24T15:34:32.041Z,5.63
2017-10-24T15:36:58.254Z,6.73
2017-10-24T15:39:25.214Z,6.33
2017-10-24T15:41:51.425Z,6.43
2017-10-24T15:44:18.354Z,7.63
2017-10-24T15:46:44.560Z,5.50
2017-10-24T15:49:10.760Z,6.37
2017-10-24T15:51:37.002Z,6.67
2017-10-24T15:54:03.194Z,5.67
2017-10-24T15:56:30.188Z,6.83
2017-10-24T15:58:56.395Z,7.37
2017-10-24T16:01:22.625Z,6.30
2017-10-24T16:03:48.818Z,6.23
2017-10-24T16:06:15.775Z,6.60
2017-10-24T16:08:41.966Z,7.20
2017-10-24T16:11:08.189Z,9.70
2017-10-24T16:13:34.378Z,6.80
2017-10-24T16:16:00.582Z,7.67
2017-10-24T16:18:26.794Z,8.00
2017-10-24T16:20:53.745Z,8.60
2017-10-24T16:23:20.682Z,9.83
2017-10-24T16:25:47.666Z,8.47
2017-10-24T16:28:13.861Z,10.53
2017-10-24T16:30:40.833Z,8.37
2017-10-24T16:33:07.005Z,11.60
2017-10-24T16:35:33.205Z,8.23
2017-10-24T16:37:59.407Z,10.60
2017-10-24T16:40:25.613Z,9.30
2017-10-24T16:42:52.569Z,8.70
2017-10-24T16:45:19.505Z,10.53
2017-10-24T16:47:46.542Z,12.33
2017-10-24T16:50:12.741Z,10.67
2017-10-24T16:52:38.942Z,10.03
2017-10-24T16:55:05.121Z,11.03
2017-10-24T16:57:31.357Z,12.43
2017-10-24T16:59:58.285Z,10.53
2017-10-24T17:02:24.491Z,11.50
2017-10-24T17:04:50.933Z,10.90
2017-10-24T17:07:17.324Z,9.97
2017-10-24T17:09:43.523Z,12.33
2017-10-24T17:12:09.790Z,10.73
2017-10-24T17:14:36.001Z,11.80
2017-10-24T17:17:02.233Z,10.80
2017-10-24T17:19:28.469Z,12.40
2017-10-24T17:21:54.653Z,11.30
2017-10-24T17:24:20.854Z,13.97
2017-10-24T17:26:47.077Z,10.20
2017-10-24T17:29:13.289Z,12.27
2017-10-24T17:31:39.470Z,11.80
2017-10-24T17:34:05.690Z,10.23
2017-10-24T17:36:31.887Z,13.80
2017-10-24T17:38:58.113Z,11.13
2017-10-24T17:41:24.340Z,9.93
2017-10-24T17:43:50.541Z,12.87
2017-10-24T17:46:16.733Z,12.53
2017-10-24T17:48:42.946Z,11.57
2017-10-24T17:51:09.161Z,11.90
2017-10-24T17:53:35.355Z,15.07
2017-10-24T17:56:01.565Z,11.50
2017-10-24T17:58:28.497Z,11.17
2017-10-24T18:00:55.461Z,11.23
2017-10-24T18:03:22.381Z,11.57
2017-10-24T18:05:48.593Z,21.67
2017-10-24T18:08:14.772Z,13.37
2017-10-24T18:10:41.014Z,11.30
2017-10-24T18:13:07.202Z,11.93
2017-10-24T18:15:34.160Z,16.57
2017-10-24T18:18:01.093Z,10.47
2017-10-24T18:20:28.045Z,12.50
2017-10-24T18:22:54.976Z,15.50
2017-10-24T18:25:21.947Z,13.10
2017-10-24T18:27:48.182Z,11.57
2017-10-24T18:30:14.406Z,12.77
2017-10-24T18:32:40.630Z,11.37
2017-10-24T18:35:06.857Z,15.63
2017-10-24T18:37:33.051Z,13.67
2017-10-24T18:39:59.270Z,15.33
2017-10-24T18:42:25.540Z,18.37
2017-10-24T18:44:52.582Z,19.10
2017-10-24T18:47:18.821Z,11.50
2017-10-24T18:52:36.362Z,13.57
2017-10-24T18:55:02.611Z,12.60
2017-10-24T18:57:28.936Z,13.40
2017-10-24T18:59:55.161Z,12.40
2017-10-24T19:02:21.394Z,14.73
2017-10-24T19:04:48.379Z,17.37
2017-10-24T19:07:14.557Z,15.43
2017-10-24T19:12:31.687Z,11.33
2017-10-24T19:14:57.921Z,13.70
2017-10-24T19:17:24.120Z,17.03
2017-10-24T19:19:51.312Z,12.57
2017-10-24T19:22:17.506Z,11.17
2017-10-24T19:24:44.433Z,11.43
2017-10-24T19:27:10.638Z,13.63
2017-10-24T19:29:37.597Z,16.57
2017-10-24T19:32:03.828Z,17.33
2017-10-24T19:34:30.082Z,14.50
2017-10-24T19:36:56.301Z,15.63
2017-10-24T19:39:22.506Z,13.00
2017-10-24T19:41:48.741Z,13.87
2017-10-24T19:44:14.938Z,12.80
2017-10-24T19:46:41.314Z,13.30
2017-10-24T19:49:08.270Z,13.07
2017-10-24T19:51:35.242Z,14.67
2017-10-24T19:54:01.428Z,13.20
2017-10-24T19:56:27.647Z,12.47
2017-10-24T19:58:53.843Z,14.37
2017-10-24T20:01:20.066Z,11.03
2017-10-24T20:03:46.281Z,11.60
2017-10-24T20:06:12.533Z,13.13
2017-10-24T20:08:38.718Z,10.67
2017-10-24T20:11:05.664Z,10.70
2017-10-24T20:13:31.877Z,8.70
2017-10-24T20:15:58.836Z,10.20
2017-10-24T20:18:25.746Z,9.03
2017-10-24T20:20:51.969Z,10.23
2017-10-24T20:23:18.162Z,7.13
2017-10-24T20:25:44.372Z,8.37
2017-10-24T20:28:10.565Z,14.10
2017-10-24T20:30:36.757Z,10.37
2017-10-24T20:33:02.992Z,8.27
2017-10-24T20:35:29.184Z,8.00
2017-10-24T20:37:55.418Z,8.07
2017-10-24T20:40:21.645Z,8.07
2017-10-24T20:42:47.852Z,9.47
2017-10-24T20:45:14.785Z,10.30
2017-10-24T20:47:41.732Z,7.70
2017-10-24T20:50:08.664Z,7.80
2017-10-24T20:52:34.882Z,7.33
2017-10-24T20:55:01.277Z,8.00
2017-10-24T20:57:27.538Z,7.37
2017-10-24T20:59:53.725Z,11.00
2017-10-24T21:02:19.925Z,7.93
2017-10-24T21:04:46.883Z,8.80
2017-10-24T21:07:13.857Z,9.80
2017-10-24T21:09:40.046Z,8.40
2017-10-24T21:12:06.981Z,8.33
2017-10-24T21:14:33.933Z,10.57
2017-10-24T21:17:00.979Z,10.27
2017-10-24T21:19:27.924Z,13.37
2017-10-24T21:21:54.849Z,11.27
2017-10-24T21:24:21.083Z,14.77
2017-10-24T21:26:48.053Z,16.27
2017-10-24T21:29:15.009Z,13.80
2017-10-24T21:31:41.205Z,18.43
2017-10-24T21:34:07.482Z,16.73
2017-10-24T21:36:33.665Z,15.60
2017-10-24T21:38:59.944Z,24.37
2017-10-24T21:41:26.152Z,16.47
2017-10-24T21:43:52.329Z,23.03
2017-10-24T21:46:18.532Z,20.17
2017-10-24T21:48:44.725Z,21.00
2017-10-24T21:51:11.685Z,23.57
2017-10-24T21:53:38.006Z,26.73
2017-10-24T21:56:04.217Z,26.33
2017-10-24T21:58:31.205Z,26.23
2017-10-24T22:00:57.433Z,29.23
2017-10-24T22:03:23.649Z,26.70
2017-10-24T22:05:49.849Z,24.93
2017-10-24T22:08:16.773Z,25.60
2017-10-24T22:10:42.982Z,30.90
2017-10-24T22:13:09.169Z,32.97
2017-10-24T22:15:35.392Z,34.67
2017-10-24T22:18:01.565Z,32.50
2017-10-24T22:20:27.773Z,31.97
2017-10-24T22:22:53.954Z,33.60
2017-10-24T22:25:20.996Z,34.67
2017-10-24T22:27:47.282Z,36.87
2017-10-24T22:30:13.482Z,36.03
2017-10-24T22:32:39.669Z,36.20
2017-10-24T22:35:05.898Z,35.57
2017-10-24T22:37:32.089Z,37.63
2017-10-24T22:39:58.327Z,36.60
2017-10-24T22:42:24.520Z,35.97
2017-10-24T22:44:50.723Z,34.80
2017-10-24T22:47:17.660Z,38.97
2017-10-24T22:49:43.867Z,38.40
2017-10-24T22:52:10.081Z,37.87
2017-10-24T22:54:36.297Z,40.77
2017-10-24T22:57:02.479Z,47.40
2017-10-24T22:59:29.437Z,43.67
2017-10-24T23:01:56.389Z,40.87
2017-10-24T23:04:22.586Z,43.97
2017-10-24T23:06:48.792Z,39.67
2017-10-24T23:09:14.973Z,40.77
2017-10-24T23:11:41.200Z,42.93
2017-10-24T23:14:07.383Z,44.13
2017-10-24T23:16:33.588Z,43.20
2017-10-24T23:18:59.813Z,37.33
2017-10-24T23:21:26.009Z,37.03
2017-10-24T23:23:52.225Z,34.47
2017-10-24T23:26:19.209Z,39.70
2017-10-24T23:28:46.134Z,40.80
2017-10-24T23:31:12.345Z,35.03
2017-10-24T23:33:39.284Z,39.80
2017-10-24T23:36:06.237Z,33.73
2017-10-24T23:38:33.172Z,49.43
2017-10-24T23:41:00.140Z,42.33
2017-10-24T23:43:26.338Z,45.47
2017-10-24T23:45:53.366Z,50.50
2017-10-24T23:48:19.569Z,50.47
2017-10-24T23:50:45.749Z,55.47
2017-10-24T23:53:12.689Z,65.33
2017-10-24T23:55:39.606Z,65.30
2017-10-24T23:58:05.813Z,66.83
